sensor_id;sensor_type;location;lat;lon;timestamp;pressure;altitude;pressure_sealevel;temperature;humidity
9764;BME280;4921;43.214;27.936;2023-06-22T00:01:17;101174.22;;;22.68;100.00
9764;BME280;4921;43.214;27.936;2023-06-22T00:03:44;101174.03;;;22.69;100.00
9764;BME280;4921;43.214;27.936;2023-06-22T00:06:11;101169.94;;;22.73;100.00
9764;BME280;4921;43.214;27.936;2023-06-22T00:08:37;101166.81;;;22.70;100.00
9764;BME280;4921;43.214;27.936;2023-06-22T00:11:06;101168.84;;;22.68;100.00
9764;BME280;4921;43.214;27.936;2023-06-22T00:13:33;101179.94;;;22.65;100.00
9764;BME280;4921;43.214;27.936;2023-06-22T00:16:00;101171.91;;;22.65;100.00
9764;BME280;4921;43.214;27.936;2023-06-22T00:18:27;101174.22;;;22.68;100.00
9764;BME280;4921;43.214;27.936;2023-06-22T00:20:56;101178.38;;;22.70;100.00
9764;BME280;4921;43.214;27.936;2023-06-22T00:23:24;101176.63;;;22.63;100.00
9764;BME280;4921;43.214;27.936;2023-06-22T00:25:51;101176.31;;;22.58;100.00
9764;BME280;4921;43.214;27.936;2023-06-22T00:28:20;101158.69;;;22.49;100.00
9764;BME280;4921;43.214;27.936;2023-06-22T00:30:48;101177.59;;;22.47;100.00
9764;BME280;4921;43.214;27.936;2023-06-22T00:33:15;101178.44;;;22.48;100.00
9764;BME280;4921;43.214;27.936;2023-06-22T00:35:42;101172.88;;;22.49;100.00
9764;BME280;4921;43.214;27.936;2023-06-22T00:38:09;101182.63;;;22.50;100.00
9764;BME280;4921;43.214;27.936;2023-06-22T00:40:36;101182.25;;;22.53;100.00
9764;BME280;4921;43.214;27.936;2023-06-22T00:43:05;101178.00;;;22.44;100.00
9764;BME280;4921;43.214;27.936;2023-06-22T00:45:34;101173.84;;;22.42;100.00
9764;BME280;4921;43.214;27.936;2023-06-22T00:48:01;101179.56;;;22.53;100.00
9764;BME280;4921;43.214;27.936;2023-06-22T00:50:30;101190.09;;;22.55;100.00
9764;BME280;4921;43.214;27.936;2023-06-22T00:53:00;101191.09;;;22.54;100.00
9764;BME280;4921;43.214;27.936;2023-06-22T00:55:28;101182.63;;;22.50;100.00
9764;BME280;4921;43.214;27.936;2023-06-22T00:57:55;101186.50;;;22.48;100.00
9764;BME280;4921;43.214;27.936;2023-06-22T01:00:23;101184.19;;;22.45;100.00
9764;BME280;4921;43.214;27.936;2023-06-22T01:02:53;101186.03;;;22.44;100.00
9764;BME280;4921;43.214;27.936;2023-06-22T01:05:21;101180.13;;;22.49;100.00
9764;BME280;4921;43.214;27.936;2023-06-22T01:08:00;101181.53;;;22.45;100.00
9764;BME280;4921;43.214;27.936;2023-06-22T01:10:35;101179.28;;;22.48;100.00
9764;BME280;4921;43.214;27.936;2023-06-22T01:13:07;101185.41;;;22.42;100.00
9764;BME280;4921;43.214;27.936;2023-06-22T01:15:44;101183.53;;;22.43;100.00
9764;BME280;4921;43.214;27.936;2023-06-22T01:18:17;101183.06;;;22.39;100.00
9764;BME280;4921;43.214;27.936;2023-06-22T01:20:45;101183.91;;;22.40;100.00
9764;BME280;4921;43.214;27.936;2023-06-22T01:23:24;101180.69;;;22.44;100.00
9764;BME280;4921;43.214;27.936;2023-06-22T01:25:59;101184.91;;;22.39;100.00
9764;BME280;4921;43.214;27.936;2023-06-22T01:28:45;101166.78;;;22.26;100.00
9764;BME280;4921;43.214;27.936;2023-06-22T01:31:13;101168.47;;;22.27;100.00
9764;BME280;4921;43.214;27.936;2023-06-22T01:33:43;101171.63;;;22.31;100.00
9764;BME280;4921;43.214;27.936;2023-06-22T01:36:12;101165.41;;;22.30;100.00
9764;BME280;4921;43.214;27.936;2023-06-22T01:38:41;101163.56;;;22.31;100.00
9764;BME280;4921;43.214;27.936;2023-06-22T01:41:09;101161.09;;;22.29;100.00
9764;BME280;4921;43.214;27.936;2023-06-22T01:43:36;101169.97;;;22.30;100.00
9764;BME280;4921;43.214;27.936;2023-06-22T01:46:05;101169.97;;;22.30;100.00
9764;BME280;4921;43.214;27.936;2023-06-22T01:48:32;101172.44;;;22.31;100.00
9764;BME280;4921;43.214;27.936;2023-06-22T01:50:59;101171.81;;;22.29;100.00
9764;BME280;4921;43.214;27.936;2023-06-22T01:53:26;101174.94;;;22.33;100.00
9764;BME280;4921;43.214;27.936;2023-06-22T01:55:53;101169.22;;;22.36;100.00
9764;BME280;4921;43.214;27.936;2023-06-22T01:58:21;101174.56;;;22.36;100.00
9764;BME280;4921;43.214;27.936;2023-06-22T02:00:54;101174.56;;;22.36;100.00
9764;BME280;4921;43.214;27.936;2023-06-22T02:03:27;101172.53;;;22.38;100.00
9764;BME280;4921;43.214;27.936;2023-06-22T02:06:01;101179.38;;;22.40;100.00
9764;BME280;4921;43.214;27.936;2023-06-22T02:08:32;101183.72;;;22.41;100.00
9764;BME280;4921;43.214;27.936;2023-06-22T02:11:02;101173.63;;;22.43;100.00
9764;BME280;4921;43.214;27.936;2023-06-22T02:13:30;101192.03;;;22.46;100.00
9764;BME280;4921;43.214;27.936;2023-06-22T02:15:58;101187.69;;;22.45;100.00
9764;BME280;4921;43.214;27.936;2023-06-22T02:18:27;101191.50;;;22.51;100.00
9764;BME280;4921;43.214;27.936;2023-06-22T02:20:54;101195.66;;;22.53;100.00
9764;BME280;4921;43.214;27.936;2023-06-22T02:23:21;101199.78;;;22.56;100.00
9764;BME280;4921;43.214;27.936;2023-06-22T02:25:48;101200.81;;;22.55;100.00
9764;BME280;4921;43.214;27.936;2023-06-22T02:28:15;101201.66;;;22.55;100.00
9764;BME280;4921;43.214;27.936;2023-06-22T02:30:42;101198.78;;;22.57;100.00
9764;BME280;4921;43.214;27.936;2023-06-22T02:33:09;101203.31;;;22.56;100.00
9764;BME280;4921;43.214;27.936;2023-06-22T02:35:38;101209.63;;;22.49;100.00
9764;BME280;4921;43.214;27.936;2023-06-22T02:38:05;101198.91;;;22.49;100.00
9764;BME280;4921;43.214;27.936;2023-06-22T02:40:33;101205.75;;;22.51;100.00
9764;BME280;4921;43.214;27.936;2023-06-22T02:43:00;101210.06;;;22.52;100.00
9764;BME280;4921;43.214;27.936;2023-06-22T02:45:28;101217.91;;;22.54;100.00
9764;BME280;4921;43.214;27.936;2023-06-22T02:47:55;101207.84;;;22.41;100.00
9764;BME280;4921;43.214;27.936;2023-06-22T02:50:22;101215.63;;;22.51;100.00
9764;BME280;4921;43.214;27.936;2023-06-22T02:52:51;101224.31;;;22.53;100.00
9764;BME280;4921;43.214;27.936;2023-06-22T02:55:18;101219.69;;;22.47;100.00
9764;BME280;4921;43.214;27.936;2023-06-22T02:57:45;101217.56;;;22.57;100.00
9764;BME280;4921;43.214;27.936;2023-06-22T03:00:14;101227.00;;;22.53;100.00
9764;BME280;4921;43.214;27.936;2023-06-22T03:02:43;101223.38;;;22.46;100.00
9764;BME280;4921;43.214;27.936;2023-06-22T03:05:11;101231.97;;;22.56;100.00
9764;BME280;4921;43.214;27.936;2023-06-22T03:07:40;101238.69;;;22.60;100.00
9764;BME280;4921;43.214;27.936;2023-06-22T03:10:10;101237.47;;;22.62;100.00
9764;BME280;4921;43.214;27.936;2023-06-22T03:12:37;101239.13;;;22.63;100.00
9764;BME280;4921;43.214;27.936;2023-06-22T03:15:06;101239.13;;;22.63;100.00
9764;BME280;4921;43.214;27.936;2023-06-22T03:17:34;101236.66;;;22.62;100.00
9764;BME280;4921;43.214;27.936;2023-06-22T03:20:01;101238.78;;;22.66;100.00
9764;BME280;4921;43.214;27.936;2023-06-22T03:22:34;101238.50;;;22.61;100.00
9764;BME280;4921;43.214;27.936;2023-06-22T03:25:01;101227.25;;;22.58;100.00
9764;BME280;4921;43.214;27.936;2023-06-22T03:27:29;101242.47;;;22.65;100.00
9764;BME280;4921;43.214;27.936;2023-06-22T03:29:57;101244.50;;;22.63;100.00
9764;BME280;4921;43.214;27.936;2023-06-22T03:32:24;101243.47;;;22.64;100.00
9764;BME280;4921;43.214;27.936;2023-06-22T03:34:53;101240.22;;;22.69;100.00
9764;BME280;4921;43.214;27.936;2023-06-22T03:37:24;101242.09;;;22.68;100.00
9764;BME280;4921;43.214;27.936;2023-06-22T03:39:51;101237.94;;;22.66;100.00
9764;BME280;4921;43.214;27.936;2023-06-22T03:42:18;101243.75;;;22.69;100.00
9764;BME280;4921;43.214;27.936;2023-06-22T03:44:47;101235.50;;;22.71;100.00
9764;BME280;4921;43.214;27.936;2023-06-22T03:47:14;101238.47;;;22.76;100.00
9764;BME280;4921;43.214;27.936;2023-06-22T03:49:41;101238.47;;;22.76;100.00
9764;BME280;4921;43.214;27.936;2023-06-22T03:52:07;101243.66;;;22.77;100.00
9764;BME280;4921;43.214;27.936;2023-06-22T03:54:34;101250.97;;;22.84;100.00
9764;BME280;4921;43.214;27.936;2023-06-22T03:57:01;101247.72;;;22.88;100.00
9764;BME280;4921;43.214;27.936;2023-06-22T03:59:28;101245.78;;;22.97;100.00
9764;BME280;4921;43.214;27.936;2023-06-22T04:01:57;101240.31;;;23.05;100.00
9764;BME280;4921;43.214;27.936;2023-06-22T04:04:24;101244.63;;;23.06;100.00
9764;BME280;4921;43.214;27.936;2023-06-22T04:06:51;101249.66;;;23.09;100.00
9764;BME280;4921;43.214;27.936;2023-06-22T04:09:17;101250.09;;;23.12;100.00
9764;BME280;4921;43.214;27.936;2023-06-22T04:11:44;101252.22;;;23.17;100.00
9764;BME280;4921;43.214;27.936;2023-06-22T04:14:11;101253.50;;;23.21;100.00
9764;BME280;4921;43.214;27.936;2023-06-22T04:16:38;101254.13;;;23.23;100.00
9764;BME280;4921;43.214;27.936;2023-06-22T04:19:07;101254.41;;;23.28;100.00
9764;BME280;4921;43.214;27.936;2023-06-22T04:21:39;101256.38;;;23.34;100.00
9764;BME280;4921;43.214;27.936;2023-06-22T04:24:06;101247.13;;;23.36;100.00
9764;BME280;4921;43.214;27.936;2023-06-22T04:26:33;101257.94;;;23.43;100.00
9764;BME280;4921;43.214;27.936;2023-06-22T04:29:03;101258.38;;;23.46;100.00
9764;BME280;4921;43.214;27.936;2023-06-22T04:31:31;101257.00;;;23.51;100.00
9764;BME280;4921;43.214;27.936;2023-06-22T04:34:02;101258.91;;;23.57;100.00
9764;BME280;4921;43.214;27.936;2023-06-22T04:36:34;101265.81;;;23.66;100.00
9764;BME280;4921;43.214;27.936;2023-06-22T04:39:04;101260.97;;;23.76;100.00
9764;BME280;4921;43.214;27.936;2023-06-22T04:41:32;101268.03;;;23.83;100.00
9764;BME280;4921;43.214;27.936;2023-06-22T04:44:08;101269.38;;;23.94;100.00
9764;BME280;4921;43.214;27.936;2023-06-22T04:46:36;101277.34;;;24.02;100.00
9764;BME280;4921;43.214;27.936;2023-06-22T04:49:06;101266.66;;;24.08;100.00
9764;BME280;4921;43.214;27.936;2023-06-22T04:51:38;101265.31;;;24.19;100.00
9764;BME280;4921;43.214;27.936;2023-06-22T04:54:06;101271.16;;;24.29;100.00
9764;BME280;4921;43.214;27.936;2023-06-22T04:56:33;101279.72;;;24.39;100.00
9764;BME280;4921;43.214;27.936;2023-06-22T04:59:00;101283.75;;;24.50;100.00
9764;BME280;4921;43.214;27.936;2023-06-22T05:01:28;101284.22;;;24.60;100.00
9764;BME280;4921;43.214;27.936;2023-06-22T05:03:56;101282.84;;;24.70;100.00
9764;BME280;4921;43.214;27.936;2023-06-22T05:06:26;101286.38;;;24.71;100.00
9764;BME280;4921;43.214;27.936;2023-06-22T05:08:55;101277.75;;;24.54;100.00
9764;BME280;4921;43.214;27.936;2023-06-22T05:11:24;101281.63;;;24.73;100.00
9764;BME280;4921;43.214;27.936;2023-06-22T05:13:52;101289.38;;;24.89;100.00
9764;BME280;4921;43.214;27.936;2023-06-22T05:16:19;101295.84;;;24.94;100.00
9764;BME280;4921;43.214;27.936;2023-06-22T05:18:50;101281.22;;;25.04;100.00
9764;BME280;4921;43.214;27.936;2023-06-22T05:21:17;101288.47;;;25.10;100.00
9764;BME280;4921;43.214;27.936;2023-06-22T05:23:44;101283.50;;;25.13;100.00
9764;BME280;4921;43.214;27.936;2023-06-22T05:26:13;101285.59;;;25.18;100.00
9764;BME280;4921;43.214;27.936;2023-06-22T05:28:40;101295.19;;;25.27;100.00
9764;BME280;4921;43.214;27.936;2023-06-22T05:31:07;101294.97;;;25.28;100.00
9764;BME280;4921;43.214;27.936;2023-06-22T05:33:34;101299.13;;;25.31;100.00
9764;BME280;4921;43.214;27.936;2023-06-22T05:36:01;101294.78;;;25.36;100.00
9764;BME280;4921;43.214;27.936;2023-06-22T05:38:28;101296.25;;;25.39;100.00
9764;BME280;4921;43.214;27.936;2023-06-22T05:40:55;101290.50;;;25.42;100.00
9764;BME280;4921;43.214;27.936;2023-06-22T05:43:24;101301.28;;;25.48;100.00
9764;BME280;4921;43.214;27.936;2023-06-22T05:45:51;101291.56;;;25.54;100.00
9764;BME280;4921;43.214;27.936;2023-06-22T05:48:17;101288.50;;;25.70;100.00
9764;BME280;4921;43.214;27.936;2023-06-22T05:50:45;101290.75;;;25.66;100.00
9764;BME280;4921;43.214;27.936;2023-06-22T05:53:12;101282.28;;;25.69;100.00
9764;BME280;4921;43.214;27.936;2023-06-22T05:55:39;101256.75;;;25.59;100.00
9764;BME280;4921;43.214;27.936;2023-06-22T05:58:06;101275.22;;;25.75;100.00
9764;BME280;4921;43.214;27.936;2023-06-22T06:00:35;101278.38;;;25.79;100.00
9764;BME280;4921;43.214;27.936;2023-06-22T06:03:02;101274.22;;;25.83;100.00
9764;BME280;4921;43.214;27.936;2023-06-22T06:05:29;101277.75;;;25.90;100.00
9764;BME280;4921;43.214;27.936;2023-06-22T06:07:56;101274.25;;;25.96;100.00
9764;BME280;4921;43.214;27.936;2023-06-22T06:10:23;101273.81;;;25.99;100.00
9764;BME280;4921;43.214;27.936;2023-06-22T06:12:50;101272.16;;;26.04;100.00
9764;BME280;4921;43.214;27.936;2023-06-22T06:15:18;101276.97;;;26.09;100.00
9764;BME280;4921;43.214;27.936;2023-06-22T06:17:47;101283.59;;;26.13;100.00
9764;BME280;4921;43.214;27.936;2023-06-22T06:20:14;101281.75;;;26.13;100.00
9764;BME280;4921;43.214;27.936;2023-06-22T06:22:41;101286.72;;;26.16;100.00
9764;BME280;4921;43.214;27.936;2023-06-22T06:25:09;101290.03;;;26.25;100.00
9764;BME280;4921;43.214;27.936;2023-06-22T06:27:42;101294.63;;;26.31;100.00
9764;BME280;4921;43.214;27.936;2023-06-22T06:30:10;101282.56;;;26.33;100.00
9764;BME280;4921;43.214;27.936;2023-06-22T06:32:37;101275.50;;;26.45;100.00
9764;BME280;4921;43.214;27.936;2023-06-22T06:35:08;101283.16;;;26.48;100.00
9764;BME280;4921;43.214;27.936;2023-06-22T06:37:36;101277.75;;;26.55;100.00
9764;BME280;4921;43.214;27.936;2023-06-22T06:40:05;101274.88;;;26.57;100.00
9764;BME280;4921;43.214;27.936;2023-06-22T06:42:34;101281.94;;;26.44;100.00
9764;BME280;4921;43.214;27.936;2023-06-22T06:45:03;101282.34;;;26.55;100.00
9764;BME280;4921;43.214;27.936;2023-06-22T06:47:30;101283.34;;;26.67;100.00
9764;BME280;4921;43.214;27.936;2023-06-22T06:49:57;101276.91;;;26.68;100.00
9764;BME280;4921;43.214;27.936;2023-06-22T06:52:26;101284.81;;;26.63;100.00
9764;BME280;4921;43.214;27.936;2023-06-22T06:54:53;101285.44;;;26.71;100.00
9764;BME280;4921;43.214;27.936;2023-06-22T06:57:20;101290.63;;;26.73;100.00
9764;BME280;4921;43.214;27.936;2023-06-22T06:59:48;101294.56;;;26.57;100.00
9764;BME280;4921;43.214;27.936;2023-06-22T07:02:15;101294.56;;;26.57;100.00
9764;BME280;4921;43.214;27.936;2023-06-22T07:04:42;101301.00;;;26.69;100.00
9764;BME280;4921;43.214;27.936;2023-06-22T07:07:09;101301.41;;;26.79;100.00
9764;BME280;4921;43.214;27.936;2023-06-22T07:09:37;101310.56;;;26.85;100.00
9764;BME280;4921;43.214;27.936;2023-06-22T07:12:05;101306.63;;;26.74;100.00
9764;BME280;4921;43.214;27.936;2023-06-22T07:14:32;101309.91;;;26.83;100.00
9764;BME280;4921;43.214;27.936;2023-06-22T07:16:59;101306.81;;;26.86;100.00
9764;BME280;4921;43.214;27.936;2023-06-22T07:19:27;101309.06;;;26.95;100.00
9764;BME280;4921;43.214;27.936;2023-06-22T07:21:54;101309.88;;;26.96;100.00
9764;BME280;4921;43.214;27.936;2023-06-22T07:24:22;101309.69;;;26.97;100.00
9764;BME280;4921;43.214;27.936;2023-06-22T07:26:51;101303.91;;;26.74;100.00
9764;BME280;4921;43.214;27.936;2023-06-22T07:29:18;101305.97;;;26.66;100.00
9764;BME280;4921;43.214;27.936;2023-06-22T07:31:45;101299.34;;;26.81;100.00
9764;BME280;4921;43.214;27.936;2023-06-22T07:34:12;101305.34;;;26.90;100.00
9764;BME280;4921;43.214;27.936;2023-06-22T07:36:39;101305.53;;;26.95;100.00
9764;BME280;4921;43.214;27.936;2023-06-22T07:39:06;101309.69;;;27.04;100.00
9764;BME280;4921;43.214;27.936;2023-06-22T07:41:33;101319.06;;;26.88;100.00
9764;BME280;4921;43.214;27.936;2023-06-22T07:44:02;101312.81;;;26.94;100.00
9764;BME280;4921;43.214;27.936;2023-06-22T07:46:29;101318.81;;;26.96;100.00
9764;BME280;4921;43.214;27.936;2023-06-22T07:48:56;101319.03;;;26.95;100.00
9764;BME280;4921;43.214;27.936;2023-06-22T07:51:25;101313.84;;;27.00;100.00
9764;BME280;4921;43.214;27.936;2023-06-22T07:53:52;101322.34;;;27.03;100.00
9764;BME280;4921;43.214;27.936;2023-06-22T07:56:18;101318.81;;;26.96;100.00
9764;BME280;4921;43.214;27.936;2023-06-22T07:58:46;101323.59;;;26.94;100.00
9764;BME280;4921;43.214;27.936;2023-06-22T08:01:15;101318.88;;;26.77;100.00
9764;BME280;4921;43.214;27.936;2023-06-22T08:03:42;101321.13;;;26.86;100.00
9764;BME280;4921;43.214;27.936;2023-06-22T08:06:09;101324.84;;;26.98;100.00
9764;BME280;4921;43.214;27.936;2023-06-22T08:08:36;101320.06;;;27.00;100.00
9764;BME280;4921;43.214;27.936;2023-06-22T08:11:03;101318.59;;;26.98;100.00
9764;BME280;4921;43.214;27.936;2023-06-22T08:13:31;101316.13;;;26.96;100.00
9764;BME280;4921;43.214;27.936;2023-06-22T08:15:58;101318.00;;;26.83;100.00
9764;BME280;4921;43.214;27.936;2023-06-22T08:18:26;101316.16;;;26.83;100.00
9764;BME280;4921;43.214;27.936;2023-06-22T08:20:53;101316.72;;;26.98;100.00
9764;BME280;4921;43.214;27.936;2023-06-22T08:23:20;101310.91;;;27.01;100.00
9764;BME280;4921;43.214;27.936;2023-06-22T08:25:47;101316.34;;;26.95;100.00
9764;BME280;4921;43.214;27.936;2023-06-22T08:28:15;101309.09;;;26.89;100.00
9764;BME280;4921;43.214;27.936;2023-06-22T08:30:42;101303.09;;;26.54;100.00
9764;BME280;4921;43.214;27.936;2023-06-22T08:33:09;101312.03;;;26.35;100.00
9764;BME280;4921;43.214;27.936;2023-06-22T08:35:38;101304.34;;;26.38;100.00
9764;BME280;4921;43.214;27.936;2023-06-22T08:38:05;101301.44;;;26.40;100.00
9764;BME280;4921;43.214;27.936;2023-06-22T08:40:32;101305.19;;;26.26;100.00
9764;BME280;4921;43.214;27.936;2023-06-22T08:42:59;101302.91;;;26.42;100.00
9764;BME280;4921;43.214;27.936;2023-06-22T08:45:26;101299.34;;;26.42;100.00
9764;BME280;4921;43.214;27.936;2023-06-22T08:47:53;101306.63;;;26.55;100.00
9764;BME280;4921;43.214;27.936;2023-06-22T08:50:19;101306.66;;;26.22;100.00
9764;BME280;4921;43.214;27.936;2023-06-22T08:52:48;101311.59;;;26.25;100.00
9764;BME280;4921;43.214;27.936;2023-06-22T08:55:15;101307.88;;;26.13;100.00
9764;BME280;4921;43.214;27.936;2023-06-22T08:57:42;101313.50;;;26.11;100.00
9764;BME280;4921;43.214;27.936;2023-06-22T09:00:10;101313.06;;;26.14;100.00
9764;BME280;4921;43.214;27.936;2023-06-22T09:02:45;101318.25;;;26.42;100.00
9764;BME280;4921;43.214;27.936;2023-06-22T09:05:12;101310.34;;;26.54;100.00
9764;BME280;4921;43.214;27.936;2023-06-22T09:07:40;101309.09;;;26.63;100.00
9764;BME280;4921;43.214;27.936;2023-06-22T09:10:09;101303.72;;;26.82;100.00
9764;BME280;4921;43.214;27.936;2023-06-22T09:12:36;101309.47;;;26.99;100.00
9764;BME280;4921;43.214;27.936;2023-06-22T09:15:05;101317.63;;;26.73;100.00
9764;BME280;4921;43.214;27.936;2023-06-22T09:17:33;101329.03;;;26.48;100.00
9764;BME280;4921;43.214;27.936;2023-06-22T09:20:01;101330.09;;;26.48;100.00
9764;BME280;4921;43.214;27.936;2023-06-22T09:22:31;101321.38;;;26.26;100.00
9764;BME280;4921;43.214;27.936;2023-06-22T09:24:58;101337.72;;;25.98;100.00
9764;BME280;4921;43.214;27.936;2023-06-22T09:27:27;101328.50;;;25.73;100.00
9764;BME280;4921;43.214;27.936;2023-06-22T09:29:54;101321.28;;;25.80;100.00
9764;BME280;4921;43.214;27.936;2023-06-22T09:32:21;101322.44;;;25.58;100.00
9764;BME280;4921;43.214;27.936;2023-06-22T09:34:48;101321.25;;;25.67;100.00
9764;BME280;4921;43.214;27.936;2023-06-22T09:37:15;101320.44;;;25.80;100.00
9764;BME280;4921;43.214;27.936;2023-06-22T09:39:42;101317.78;;;25.93;100.00
9764;BME280;4921;43.214;27.936;2023-06-22T09:42:09;101318.81;;;25.92;100.00
9764;BME280;4921;43.214;27.936;2023-06-22T09:44:38;101325.03;;;26.05;100.00
9764;BME280;4921;43.214;27.936;2023-06-22T09:47:06;101323.22;;;26.19;100.00
9764;BME280;4921;43.214;27.936;2023-06-22T09:49:33;101333.63;;;26.22;100.00
9764;BME280;4921;43.214;27.936;2023-06-22T09:52:00;101336.72;;;26.25;100.00
9764;BME280;4921;43.214;27.936;2023-06-22T09:54:27;101344.78;;;26.12;100.00
9764;BME280;4921;43.214;27.936;2023-06-22T09:56:54;101337.22;;;25.62;100.00
9764;BME280;4921;43.214;27.936;2023-06-22T09:59:21;101338.94;;;25.96;100.00
9764;BME280;4921;43.214;27.936;2023-06-22T10:01:49;101343.97;;;26.25;100.00
9764;BME280;4921;43.214;27.936;2023-06-22T10:04:16;101333.41;;;26.23;100.00
9764;BME280;4921;43.214;27.936;2023-06-22T10:06:43;101347.28;;;26.27;100.00
9764;BME280;4921;43.214;27.936;2023-06-22T10:09:10;101347.22;;;25.88;100.00
9764;BME280;4921;43.214;27.936;2023-06-22T10:11:37;101343.50;;;26.02;100.00
9764;BME280;4921;43.214;27.936;2023-06-22T10:14:04;101336.94;;;26.43;100.00
9764;BME280;4921;43.214;27.936;2023-06-22T10:16:32;101341.72;;;26.41;100.00
9764;BME280;4921;43.214;27.936;2023-06-22T10:19:00;101325.09;;;26.25;100.00
9764;BME280;4921;43.214;27.936;2023-06-22T10:21:27;101345.22;;;26.22;100.00
9764;BME280;4921;43.214;27.936;2023-06-22T10:23:54;101342.13;;;26.32;100.00
9764;BME280;4921;43.214;27.936;2023-06-22T10:26:21;101335.03;;;26.70;100.00
9764;BME280;4921;43.214;27.936;2023-06-22T10:28:48;101338.16;;;26.93;100.00
9764;BME280;4921;43.214;27.936;2023-06-22T10:31:15;101340.84;;;27.06;100.00
9764;BME280;4921;43.214;27.936;2023-06-22T10:33:42;101339.97;;;27.12;100.00
9764;BME280;4921;43.214;27.936;2023-06-22T10:36:11;101339.38;;;27.10;100.00
9764;BME280;4921;43.214;27.936;2023-06-22T10:38:38;101343.88;;;27.30;100.00
9764;BME280;4921;43.214;27.936;2023-06-22T10:41:05;101337.94;;;26.95;100.00
9764;BME280;4921;43.214;27.936;2023-06-22T10:43:32;101352.06;;;26.97;100.00
9764;BME280;4921;43.214;27.936;2023-06-22T10:45:59;101341.91;;;26.73;100.00
9764;BME280;4921;43.214;27.936;2023-06-22T10:48:26;101329.66;;;26.57;100.00
9764;BME280;4921;43.214;27.936;2023-06-22T10:50:53;101337.97;;;26.75;100.00
9764;BME280;4921;43.214;27.936;2023-06-22T10:53:22;101324.25;;;26.90;100.00
9764;BME280;4921;43.214;27.936;2023-06-22T10:55:49;101324.44;;;27.01;100.00
9764;BME280;4921;43.214;27.936;2023-06-22T10:58:17;101330.66;;;27.08;100.00
9764;BME280;4921;43.214;27.936;2023-06-22T11:00:44;101335.84;;;26.97;100.00
9764;BME280;4921;43.214;27.936;2023-06-22T11:03:13;101320.66;;;27.02;100.00
9764;BME280;4921;43.214;27.936;2023-06-22T11:05:40;101322.88;;;27.25;100.00
9764;BME280;4921;43.214;27.936;2023-06-22T11:08:07;101322.13;;;27.05;100.00
9764;BME280;4921;43.214;27.936;2023-06-22T11:10:36;101321.28;;;26.98;100.00
9764;BME280;4921;43.214;27.936;2023-06-22T11:13:03;101321.97;;;26.87;100.00
9764;BME280;4921;43.214;27.936;2023-06-22T11:15:31;101324.69;;;26.41;100.00
9764;BME280;4921;43.214;27.936;2023-06-22T11:17:58;101326.94;;;26.64;100.00
9764;BME280;4921;43.214;27.936;2023-06-22T11:20:25;101322.16;;;26.66;100.00
9764;BME280;4921;43.214;27.936;2023-06-22T11:22:52;101326.75;;;26.72;100.00
9764;BME280;4921;43.214;27.936;2023-06-22T11:25:19;101326.94;;;26.51;100.00
9764;BME280;4921;43.214;27.936;2023-06-22T11:27:47;101328.63;;;26.45;100.00
9764;BME280;4921;43.214;27.936;2023-06-22T11:30:14;101325.53;;;26.55;100.00
9764;BME280;4921;43.214;27.936;2023-06-22T11:32:42;101319.91;;;26.43;100.00
9764;BME280;4921;43.214;27.936;2023-06-22T11:35:08;101324.69;;;26.41;100.00
9764;BME280;4921;43.214;27.936;2023-06-22T11:37:35;101326.97;;;26.11;100.00
9764;BME280;4921;43.214;27.936;2023-06-22T11:40:03;101324.78;;;25.67;100.00
9764;BME280;4921;43.214;27.936;2023-06-22T11:42:34;101321.88;;;25.69;100.00
9764;BME280;4921;43.214;27.936;2023-06-22T11:45:04;101326.88;;;25.79;100.00
9764;BME280;4921;43.214;27.936;2023-06-22T11:47:32;101315.06;;;25.86;100.00
9764;BME280;4921;43.214;27.936;2023-06-22T11:49:59;101322.53;;;25.84;100.00
9764;BME280;4921;43.214;27.936;2023-06-22T11:52:26;101308.75;;;25.46;100.00
9764;BME280;4921;43.214;27.936;2023-06-22T11:54:53;101319.78;;;25.64;100.00
9764;BME280;4921;43.214;27.936;2023-06-22T11:57:20;101312.69;;;25.44;100.00
9764;BME280;4921;43.214;27.936;2023-06-22T11:59:47;101313.31;;;25.46;100.00
9764;BME280;4921;43.214;27.936;2023-06-22T12:02:15;101313.78;;;25.69;100.00
9764;BME280;4921;43.214;27.936;2023-06-22T12:04:42;101314.88;;;25.81;100.00
9764;BME280;4921;43.214;27.936;2023-06-22T12:07:09;101319.41;;;25.81;100.00
9764;BME280;4921;43.214;27.936;2023-06-22T12:09:36;101309.00;;;25.64;100.00
9764;BME280;4921;43.214;27.936;2023-06-22T12:12:04;101318.47;;;25.47;100.00
9764;BME280;4921;43.214;27.936;2023-06-22T12:14:31;101315.31;;;25.37;100.00
9764;BME280;4921;43.214;27.936;2023-06-22T12:16:58;101316.63;;;25.48;100.00
9764;BME280;4921;43.214;27.936;2023-06-22T12:19:26;101314.00;;;25.67;100.00
9764;BME280;4921;43.214;27.936;2023-06-22T12:21:53;101312.34;;;25.73;100.00
9764;BME280;4921;43.214;27.936;2023-06-22T12:24:20;101315.28;;;25.85;100.00
9764;BME280;4921;43.214;27.936;2023-06-22T12:26:47;101306.97;;;25.80;100.00
9764;BME280;4921;43.214;27.936;2023-06-22T12:29:14;101304.47;;;25.71;100.00
9764;BME280;4921;43.214;27.936;2023-06-22T12:31:41;101311.34;;;25.81;100.00
9764;BME280;4921;43.214;27.936;2023-06-22T12:34:08;101311.88;;;25.56;100.00
9764;BME280;4921;43.214;27.936;2023-06-22T12:36:36;101304.63;;;25.57;100.00
9764;BME280;4921;43.214;27.936;2023-06-22T12:39:04;101303.00;;;25.69;100.00
9764;BME280;4921;43.214;27.936;2023-06-22T12:41:31;101310.31;;;25.34;100.00
9764;BME280;4921;43.214;27.936;2023-06-22T12:43:57;101312.63;;;25.37;100.00
9764;BME280;4921;43.214;27.936;2023-06-22T12:46:25;101307.31;;;25.50;100.00
9764;BME280;4921;43.214;27.936;2023-06-22T12:48:51;101308.78;;;25.53;100.00
9764;BME280;4921;43.214;27.936;2023-06-22T12:51:21;101302.53;;;25.46;100.00
9764;BME280;4921;43.214;27.936;2023-06-22T12:53:50;101311.63;;;25.45;100.00